Terminal Aerodrome Forecast
Issued by NWS

Current Version | Previous Version | Text Only | Print | Product List | Glossary Off
Versions: 1 2 3 4 5 6 7 8 9 10 11 12 13 14 15 16 17

000
FTUS41 KRNK 081749
TAFLWB
TAF
KLWB 081749Z 0818/0918 00000KT P6SM OVC090
     FM090600 00000KT 2SM -SN OVC020
     FM091000 00000KT 1SM -SN BKN008
     FM091500 00000KT 4SM -SN BKN015
     FM091700 VRB03KT 6SM -SN SCT015 BKN022=

USA.gov is the U.S. government's official web portal to all federal, state and local government web resources and services.